• Join FlightAware (Why Join?)
  • Login
  • US Flag 
01:55PM EDT


 

Airport Tracker/Info


-or-


 

Live Flight TrackerFlight Track Log ✈ UPS1143 ✈ 20-Jun-2013 ✈ KBUF - KSDF

Flight Track Log - Related Links

Times and Time Zones

All times are in EDT time to prevent confusion due to time zone crossing. See the UPS1143 flight status page for this flight to view local times or setup timezone preferences in your user account.

Time Position Orientation Groundspeed Altitude Reporting Facility
EDT Latitude Longitude Course Direction KTS MPH feet Rate Location/Type
11:11PM 42.9390 -78.7400 98° East 10 12  Level FlightAware
11:11PM 42.9390 -78.7390 90° East 2 2 60 Level FlightAware
11:12PM 42.9380 -78.7380 144° Southeast 21 24 60 Level FlightAware
11:13PM 42.9370 -78.7370 144° Southeast 29 33 60 Level FlightAware
11:15PM 42.9340 -78.7360 166° South 29 33 60 Level FlightAware
11:18PM 42.7143 -78.8347 202° Southwest  Level FlightAware Approximate
11:19PM 42.6210 -78.8866 202° Southwest  Level FlightAware Approximate
11:20PM 42.5265 -78.9339 198° South  Level FlightAware Approximate
11:20PM 42.9320 -78.7400 198° South 43 49  Level FlightAware
11:20PM 42.9360 -78.7360 36° Northeast 105 121 1,260 Level FlightAware
11:20PM 42.9440 -78.7250 45° Northeast 166 191 600 3,000 Climbing FlightAware
11:20PM 42.9590 -78.7070 41° Northeast 158 182 2,200 2,880 Climbing FlightAware
11:21PM 42.9710 -78.6830 56° Northeast 179 206 3,300 2,100 Climbing FlightAware
11:21PM 42.9600 -78.6540 117° Southeast 200 230 4,200 1,680 Climbing FlightAware
11:22PM 42.9510 -78.6490 158° South 213 245 4,400 1,320 Climbing FlightAware
11:22PM 42.9290 -78.6560 193° South 241 277 5,000 2,400 Climbing FlightAware
11:23PM 42.8970 -78.6770 206° Southwest 263 303 6,600 3,360 Climbing FlightAware
11:23PM 42.8630 -78.7000 206° Southwest 276 318 8,400 3,420 Climbing FlightAware
11:23PM 42.8470 -78.7100 205° Southwest 281 323 9,200 2,580 Climbing FlightAware
11:24PM 42.7950 -78.7440 206° Southwest 325 374 10,800 1,860 Climbing FlightAware
11:24PM 42.7550 -78.7790 213° Southwest 363 418 11,400 2,220 Climbing FlightAware
11:25PM 42.6900 -78.8790 229° Southwest 387 445 14,100 2,820 Climbing FlightAware
11:26PM 42.6400 -78.9590 230° Southwest 399 459 16,100 2,940 Climbing FlightAware
11:27PM 42.5830 -79.0450 228° Southwest 409 471 18,200 2,760 Climbing FlightAware
11:27PM 42.5360 -79.1190 229° Southwest 416 479 19,800 2,400 Climbing FlightAware
11:28PM 42.4770 -79.2090 228° Southwest 428 493 21,600 2,160 Climbing FlightAware
11:29PM 42.4200 -79.2960 228° Southwest 440 506 23,000 1,860 Climbing FlightAware
11:29PM 42.3690 -79.3760 229° Southwest 453 521 24,100 1,620 Climbing FlightAware
11:30PM 42.3050 -79.4730 228° Southwest 467 537 25,300 1,800 Climbing FlightAware
11:31PM 42.2410 -79.5700 228° Southwest 473 544 26,800 1,920 Climbing FlightAware
11:32PM 42.1810 -79.6600 228° Southwest 475 547 28,100 2,040 Climbing FlightAware
11:32PM 42.1200 -79.7530 229° Southwest 470 541 29,600 2,220 Climbing FlightAware
11:33PM 42.0620 -79.8390 228° Southwest 463 533 31,100 1,680 Climbing FlightAware
11:34PM 42.0010 -79.9320 229° Southwest 467 537 32,000 600 Climbing FlightAware
11:34PM 41.9380 -80.0270 228° Southwest 464 534 32,000  Level FlightAware
11:35PM 41.8830 -80.1080 228° Southwest 461 531 32,000  Level FlightAware
11:36PM 41.8210 -80.2020 229° Southwest 461 531 32,000  Level FlightAware
11:37PM 41.7630 -80.2870 228° Southwest 462 532 32,000  Level FlightAware
11:37PM 41.7050 -80.3720 228° Southwest 462 532 32,000  Level FlightAware
11:38PM 41.6450 -80.4630 229° Southwest 461 531 32,000  Level FlightAware
11:39PM 41.5820 -80.5560 228° Southwest 463 533 32,000  Level FlightAware
11:39PM 41.5240 -80.6390 227° Southwest 466 536 32,000  Level FlightAware
11:40PM 41.4700 -80.7200 228° Southwest 469 540 32,000  Level FlightAware
11:41PM 41.4010 -80.8200 227° Southwest 471 542 32,000  Level FlightAware
11:41PM 41.3370 -80.9130 228° Southwest 472 543 32,000  Level FlightAware
11:42PM 41.2790 -81.0020 229° Southwest 470 541 32,000  Level FlightAware
11:43PM 41.2200 -81.1020 232° Southwest 471 542 32,000  Level FlightAware
11:43PM 41.1670 -81.1940 233° Southwest 473 544 32,000  Level FlightAware
11:44PM 41.1080 -81.2950 232° Southwest 472 543 32,000  Level FlightAware
11:45PM 41.0610 -81.3760 232° Southwest 472 543 32,000  Level FlightAware
11:46PM 40.9960 -81.4880 232° Southwest 473 544 32,000  Level FlightAware
11:46PM 40.9430 -81.5770 232° Southwest 474 545 32,000  Level FlightAware
11:47PM 40.8830 -81.6800 232° Southwest 473 544 32,000  Level FlightAware
11:48PM 40.8300 -81.7710 232° Southwest 472 543 32,000  Level FlightAware
11:48PM 40.7710 -81.8690 232° Southwest 468 539 32,000  Level FlightAware
11:49PM 40.7180 -81.9580 232° Southwest 466 536 32,000  Level FlightAware
11:50PM 40.6590 -82.0570 232° Southwest 464 534 32,000  Level FlightAware
11:51PM 40.6010 -82.1560 232° Southwest 464 534 32,000  Level FlightAware
11:51PM 40.5480 -82.2460 232° Southwest 466 536 32,000  Level FlightAware
11:52PM 40.4900 -82.3420 232° Southwest 469 540 32,000  Level FlightAware
11:53PM 40.4330 -82.4360 231° Southwest 469 540 32,000  Level FlightAware
11:53PM 40.3790 -82.5250 231° Southwest 468 539 32,000  Level FlightAware
11:54PM 40.3220 -82.6200 232° Southwest 468 539 32,000  Level FlightAware
11:55PM 40.2640 -82.7160 232° Southwest 468 539 32,000  Level FlightAware
11:56PM 40.1900 -82.8350 231° Southwest 470 541 32,000  Level FlightAware
11:56PM 40.1310 -82.9250 229° Southwest 468 539 32,000  Level FlightAware
11:57PM 40.0760 -83.0090 229° Southwest 466 536 32,000  Level FlightAware
11:58PM 40.0140 -83.1030 229° Southwest 468 539 32,000  Level FlightAware
11:58PM 39.9540 -83.1940 229° Southwest 470 541 32,000 -120 Level FlightAware
11:59PM 39.8970 -83.2820 230° Southwest 473 544 31,900 -600 Descending FlightAware
12:00AM 39.8300 -83.3830 229° Southwest 456 525 31,200 -420 Descending FlightAware
12:02AM 39.8050 -83.4220 230° Southwest 451 519 30,900 -480 Descending FlightAware
12:02AM 39.6330 -83.7000 231° Southwest 440 506 30,000 -660 Descending FlightAware
12:03AM 39.5790 -83.7900 232° Southwest 442 509 30,000 -480 Level FlightAware
12:04AM 39.5280 -83.8750 232° Southwest 440 506 29,400 -960 Descending FlightAware
12:05AM 39.4740 -83.9630 232° Southwest 430 495 28,700 -1,020 Descending FlightAware
12:05AM 39.4230 -84.0470 232° Southwest 420 483 28,000 -1,260 Descending FlightAware
12:06AM 39.3700 -84.1320 231° Southwest 410 472 26,900 -1,920 Descending FlightAware
12:07AM 39.3210 -84.2120 232° Southwest 402 463 25,300 -2,100 Descending FlightAware
12:07AM 39.2840 -84.2720 231° Southwest 395 455 24,300 -720 Descending FlightAware
12:08AM 39.2340 -84.3530 231° Southwest 395 455 24,300  Level FlightAware
12:09AM 39.1980 -84.4090 230° Southwest 395 455 24,300 -2,280 Level FlightAware
12:09AM 39.1410 -84.5030 232° Southwest 377 434 21,500 -1,920 Descending FlightAware
12:10AM 39.0950 -84.5760 231° Southwest 377 434 21,500  Level FlightAware
12:11AM 39.0550 -84.6400 231° Southwest 377 434 21,500 -2,400 Level FlightAware
12:12AM 39.0080 -84.7160 232° Southwest 359 413 18,200 -2,640 Descending FlightAware
12:12AM 38.9760 -84.7670 231° Southwest 359 413 18,200  Level FlightAware
12:13AM 38.9330 -84.8350 231° Southwest 359 413 18,200  Level FlightAware
12:14AM 38.9010 -84.8850 231° Southwest 359 413 18,200  Level FlightAware
12:14AM 38.8590 -84.9530 232° Southwest 359 413 18,200 -1,980 Level FlightAware
12:17AM 38.6130 -85.0940 204° Southwest 321 369 11,800 -2,280 Descending FlightAware
12:18AM 38.5570 -85.1470 217° Southwest 315 362 11,000 -1,320 Descending FlightAware
12:18AM 38.5070 -85.1950 217° Southwest 308 354 9,900 -1,140 Descending FlightAware
12:19AM 38.4750 -85.2260 217° Southwest 295 339 9,700 -540 Descending FlightAware
12:19AM 38.4630 -85.2370 216° Southwest 287 330 9,600 -1,200 Descending FlightAware
12:19AM 38.4330 -85.2650 216° Southwest 284 327 8,900 -1,560 Descending FlightAware
12:20AM 38.3840 -85.3130 218° Southwest 283 326 7,600 -1,560 Descending FlightAware
12:21AM 38.3600 -85.3360 217° Southwest 279 321 7,100 -960 Descending FlightAware
12:21AM 38.3300 -85.3630 215° Southwest 276 318 6,800 -300 Descending FlightAware
12:22AM 38.3020 -85.4000 226° Southwest 251 289 6,800  Level FlightAware
12:22AM 38.2990 -85.4390 264° West 240 276 6,800  Level FlightAware
12:22AM 38.2980 -85.4570 266° West 238 274 6,800  Level FlightAware
12:23AM 38.2970 -85.4920 268° West 236 272 6,800  Level FlightAware
12:23AM 38.2950 -85.5350 267° West 237 273 6,800  Level FlightAware
12:23AM 38.2940 -85.5570 267° West 237 273 6,800 -180 Level FlightAware
12:24AM 38.2920 -85.5990 267° West 232 267 6,700 -780 Descending FlightAware
12:24AM 38.2800 -85.6340 246° West 232 267 6,100 -1,380 Descending FlightAware
12:25AM 38.2730 -85.6480 238° Southwest 232 267 5,800 -900 Descending FlightAware
12:25AM 38.2520 -85.6590 202° Southwest 229 264 5,300 -900 Descending FlightAware
12:26AM 38.2040 -85.6440 166° South 201 231 4,800 -780 Descending FlightAware
12:26AM 38.1790 -85.6360 166° South 201 231 4,600 -780 Descending FlightAware
12:27AM 38.1550 -85.6280 165° South 200 230 4,100 -900 Descending FlightAware
12:27AM 38.1290 -85.6210 168° South 192 221 3,800 -900 Descending FlightAware
12:28AM 38.1050 -85.6140 167° South 193 222 3,300 -1,020 Descending FlightAware
12:28AM 38.0800 -85.6080 169° South 189 217 2,900 -540 Descending FlightAware
12:29AM 38.0620 -85.6260 218° Southwest 195 224 2,800 -300 Descending FlightAware
12:29AM 38.0640 -85.6630 274° West 198 228 2,600 -660 Descending FlightAware
12:30AM 38.0770 -85.6850 307° West 177 204 2,200 -1,140 Descending FlightAware
12:30AM 38.1030 -85.7030 331° Northwest 146 168 1,500 -900 Descending FlightAware
12:31AM 38.1210 -85.7090 345° North 145 167 1,200 -780 Descending FlightAware
12:31AM 38.1390 -85.7150 345° North 144 166 800 -780 Descending FlightAware
12:32AM 38.1580 -85.7210 346° North 142 163 500 -780 Descending FlightAware
12:32AM 38.1710 -85.7260 343° North 140 161 200 -420 Descending FlightAware
12:32AM 38.1860 -85.7310 345° North 140 161 200  Level FlightAware
12:33AM 38.1830 -85.7330 208° Southwest 21 24 -360 Descending FlightAware
12:34AM 38.1800 -85.7340 195° South 26 30  Level FlightAware
12:34AM 38.1780 -85.7330 159° South 17 20  Level FlightAware
12:35AM 38.1780 -85.7370 270° West 19 22  Level FlightAware
12:35AM 38.1790 -85.7390 302° West 22 25  Level FlightAware
12:36AM 38.1800 -85.7430 288° West 15 17  Level FlightAware
12:36AM 38.1790 -85.7430 180° South 16 18  Level FlightAware
12:39AM 38.1741 -85.7365 322° Northwest  Level Estimated
12:40AM 38.1741 -85.7365 322° Northwest  Level Estimated